sensor_id;sensor_type;location;lat;lon;timestamp;temperature;humidity
43772;HTU21D;59066;54.782;32.024;2022-07-23T00:01:45;19.01;73.20
43772;HTU21D;59066;54.782;32.024;2022-07-23T00:04:14;18.95;73.41
43772;HTU21D;59066;54.782;32.024;2022-07-23T00:06:41;18.95;73.56
43772;HTU21D;59066;54.782;32.024;2022-07-23T00:09:09;18.91;73.52
43772;HTU21D;59066;54.782;32.024;2022-07-23T00:11:36;18.83;74.01
43772;HTU21D;59066;54.782;32.024;2022-07-23T00:14:04;18.67;74.51
43772;HTU21D;59066;54.782;32.024;2022-07-23T00:16:31;18.69;74.57
43772;HTU21D;59066;54.782;32.024;2022-07-23T00:18:59;18.69;74.68
43772;HTU21D;59066;54.782;32.024;2022-07-23T00:21:29;18.65;74.79
43772;HTU21D;59066;54.782;32.024;2022-07-23T00:23:56;18.62;75.03
43772;HTU21D;59066;54.782;32.024;2022-07-23T00:26:24;18.63;75.25
43772;HTU21D;59066;54.782;32.024;2022-07-23T00:28:51;18.65;75.20
43772;HTU21D;59066;54.782;32.024;2022-07-23T00:31:19;18.68;75.13
43772;HTU21D;59066;54.782;32.024;2022-07-23T00:33:55;18.63;75.28
43772;HTU21D;59066;54.782;32.024;2022-07-23T00:36:28;18.62;75.28
43772;HTU21D;59066;54.782;32.024;2022-07-23T00:38:55;18.56;75.39
43772;HTU21D;59066;54.782;32.024;2022-07-23T00:41:23;18.46;75.98
43772;HTU21D;59066;54.782;32.024;2022-07-23T00:43:51;18.44;76.11
43772;HTU21D;59066;54.782;32.024;2022-07-23T00:46:20;18.40;76.35
43772;HTU21D;59066;54.782;32.024;2022-07-23T00:48:48;18.37;76.72
43772;HTU21D;59066;54.782;32.024;2022-07-23T00:51:16;18.35;76.98
43772;HTU21D;59066;54.782;32.024;2022-07-23T00:53:44;18.35;76.90
43772;HTU21D;59066;54.782;32.024;2022-07-23T00:56:21;18.39;76.76
43772;HTU21D;59066;54.782;32.024;2022-07-23T00:58:49;18.32;76.79
43772;HTU21D;59066;54.782;32.024;2022-07-23T01:01:17;18.28;76.92
43772;HTU21D;59066;54.782;32.024;2022-07-23T01:03:44;18.26;77.09
43772;HTU21D;59066;54.782;32.024;2022-07-23T01:06:12;18.25;77.02
43772;HTU21D;59066;54.782;32.024;2022-07-23T01:08:41;18.20;77.05
43772;HTU21D;59066;54.782;32.024;2022-07-23T01:11:08;18.18;77.27
43772;HTU21D;59066;54.782;32.024;2022-07-23T01:13:41;18.17;77.50
43772;HTU21D;59066;54.782;32.024;2022-07-23T01:16:09;18.15;77.86
43772;HTU21D;59066;54.782;32.024;2022-07-23T01:18:37;18.12;77.54
43772;HTU21D;59066;54.782;32.024;2022-07-23T01:21:05;18.12;77.63
43772;HTU21D;59066;54.782;32.024;2022-07-23T01:23:33;18.08;77.76
43772;HTU21D;59066;54.782;32.024;2022-07-23T01:26:00;18.07;78.00
43772;HTU21D;59066;54.782;32.024;2022-07-23T01:28:35;18.00;78.10
43772;HTU21D;59066;54.782;32.024;2022-07-23T01:31:03;17.96;78.31
43772;HTU21D;59066;54.782;32.024;2022-07-23T01:33:34;17.92;78.40
43772;HTU21D;59066;54.782;32.024;2022-07-23T01:36:04;17.90;78.81
43772;HTU21D;59066;54.782;32.024;2022-07-23T01:38:31;17.84;78.87
43772;HTU21D;59066;54.782;32.024;2022-07-23T01:40:59;17.89;78.72
43772;HTU21D;59066;54.782;32.024;2022-07-23T01:43:30;17.92;78.58
43772;HTU21D;59066;54.782;32.024;2022-07-23T01:45:57;17.95;78.56
43772;HTU21D;59066;54.782;32.024;2022-07-23T01:48:29;17.89;78.72
43772;HTU21D;59066;54.782;32.024;2022-07-23T01:51:24;17.87;78.75
43772;HTU21D;59066;54.782;32.024;2022-07-23T01:53:58;17.78;78.98
43772;HTU21D;59066;54.782;32.024;2022-07-23T01:56:25;17.82;79.01
43772;HTU21D;59066;54.782;32.024;2022-07-23T01:58:54;17.81;78.88
43772;HTU21D;59066;54.782;32.024;2022-07-23T02:01:22;17.77;79.13
43772;HTU21D;59066;54.782;32.024;2022-07-23T02:03:49;17.77;79.21
43772;HTU21D;59066;54.782;32.024;2022-07-23T02:06:17;17.84;79.01
43772;HTU21D;59066;54.782;32.024;2022-07-23T02:08:45;17.99;78.91
43772;HTU21D;59066;54.782;32.024;2022-07-23T02:11:12;17.94;78.70
43772;HTU21D;59066;54.782;32.024;2022-07-23T02:13:39;17.90;78.81
43772;HTU21D;59066;54.782;32.024;2022-07-23T02:16:07;17.89;78.91
43772;HTU21D;59066;54.782;32.024;2022-07-23T02:18:34;17.93;78.92
43772;HTU21D;59066;54.782;32.024;2022-07-23T02:21:02;17.94;78.82
43772;HTU21D;59066;54.782;32.024;2022-07-23T02:23:29;17.92;78.92
43772;HTU21D;59066;54.782;32.024;2022-07-23T02:26:17;17.87;79.05
43772;HTU21D;59066;54.782;32.024;2022-07-23T02:28:49;17.89;79.00
43772;HTU21D;59066;54.782;32.024;2022-07-23T02:31:16;17.87;79.11
43772;HTU21D;59066;54.782;32.024;2022-07-23T02:33:44;17.92;79.11
43772;HTU21D;59066;54.782;32.024;2022-07-23T02:36:13;17.96;79.01
43772;HTU21D;59066;54.782;32.024;2022-07-23T02:38:41;17.98;78.92
43772;HTU21D;59066;54.782;32.024;2022-07-23T02:41:09;17.99;78.83
43772;HTU21D;59066;54.782;32.024;2022-07-23T02:43:37;17.96;78.95
43772;HTU21D;59066;54.782;32.024;2022-07-23T02:46:04;17.99;79.01
43772;HTU21D;59066;54.782;32.024;2022-07-23T02:48:32;18.05;78.85
43772;HTU21D;59066;54.782;32.024;2022-07-23T02:51:01;18.09;78.77
43772;HTU21D;59066;54.782;32.024;2022-07-23T02:53:34;18.17;78.63
43772;HTU21D;59066;54.782;32.024;2022-07-23T02:56:01;18.20;78.44
43772;HTU21D;59066;54.782;32.024;2022-07-23T02:58:29;18.28;78.33
43772;HTU21D;59066;54.782;32.024;2022-07-23T03:00:57;18.38;78.27
43772;HTU21D;59066;54.782;32.024;2022-07-23T03:03:25;18.38;78.09
43772;HTU21D;59066;54.782;32.024;2022-07-23T03:05:55;18.38;78.06
43772;HTU21D;59066;54.782;32.024;2022-07-23T03:08:23;18.49;78.16
43772;HTU21D;59066;54.782;32.024;2022-07-23T03:10:52;18.55;78.01
43772;HTU21D;59066;54.782;32.024;2022-07-23T03:13:19;18.63;77.89
43772;HTU21D;59066;54.782;32.024;2022-07-23T03:15:46;18.65;77.91
43772;HTU21D;59066;54.782;32.024;2022-07-23T03:18:14;18.72;77.82
43772;HTU21D;59066;54.782;32.024;2022-07-23T03:20:41;18.76;77.72
43772;HTU21D;59066;54.782;32.024;2022-07-23T03:23:09;18.83;77.59
43772;HTU21D;59066;54.782;32.024;2022-07-23T03:25:38;18.94;77.33
43772;HTU21D;59066;54.782;32.024;2022-07-23T03:28:05;19.00;77.02
43772;HTU21D;59066;54.782;32.024;2022-07-23T03:30:33;18.98;76.89
43772;HTU21D;59066;54.782;32.024;2022-07-23T03:33:00;19.00;76.91
43772;HTU21D;59066;54.782;32.024;2022-07-23T03:35:27;19.03;76.97
43772;HTU21D;59066;54.782;32.024;2022-07-23T03:38:14;19.10;76.76
43772;HTU21D;59066;54.782;32.024;2022-07-23T03:40:42;19.14;76.57
43772;HTU21D;59066;54.782;32.024;2022-07-23T03:43:09;19.20;76.58
43772;HTU21D;59066;54.782;32.024;2022-07-23T03:45:37;19.28;76.44
43772;HTU21D;59066;54.782;32.024;2022-07-23T03:48:04;19.27;76.41
43772;HTU21D;59066;54.782;32.024;2022-07-23T03:50:32;19.27;76.61
43772;HTU21D;59066;54.782;32.024;2022-07-23T03:52:59;19.32;76.48
43772;HTU21D;59066;54.782;32.024;2022-07-23T03:55:27;19.39;76.29
43772;HTU21D;59066;54.782;32.024;2022-07-23T03:57:54;19.48;76.14
43772;HTU21D;59066;54.782;32.024;2022-07-23T04:00:22;19.53;75.88
43772;HTU21D;59066;54.782;32.024;2022-07-23T04:02:50;19.57;75.52
43772;HTU21D;59066;54.782;32.024;2022-07-23T04:05:18;19.62;75.14
43772;HTU21D;59066;54.782;32.024;2022-07-23T04:07:50;19.62;74.82
43772;HTU21D;59066;54.782;32.024;2022-07-23T04:10:18;19.69;74.51
43772;HTU21D;59066;54.782;32.024;2022-07-23T04:12:46;19.71;74.23
43772;HTU21D;59066;54.782;32.024;2022-07-23T04:15:13;19.71;74.11
43772;HTU21D;59066;54.782;32.024;2022-07-23T04:17:41;19.76;73.84
43772;HTU21D;59066;54.782;32.024;2022-07-23T04:20:09;19.83;73.61
43772;HTU21D;59066;54.782;32.024;2022-07-23T04:22:43;19.88;73.36
43772;HTU21D;59066;54.782;32.024;2022-07-23T04:25:11;19.92;73.25
43772;HTU21D;59066;54.782;32.024;2022-07-23T04:27:41;19.97;73.06
43772;HTU21D;59066;54.782;32.024;2022-07-23T04:30:09;20.04;72.91
43772;HTU21D;59066;54.782;32.024;2022-07-23T04:32:36;20.09;72.80
43772;HTU21D;59066;54.782;32.024;2022-07-23T04:35:11;20.17;72.68
43772;HTU21D;59066;54.782;32.024;2022-07-23T04:37:39;20.22;72.58
43772;HTU21D;59066;54.782;32.024;2022-07-23T04:40:07;20.30;72.49
43772;HTU21D;59066;54.782;32.024;2022-07-23T04:42:35;20.35;72.25
43772;HTU21D;59066;54.782;32.024;2022-07-23T04:47:40;20.49;71.95
43772;HTU21D;59066;54.782;32.024;2022-07-23T04:50:07;20.57;71.66
43772;HTU21D;59066;54.782;32.024;2022-07-23T04:52:38;20.63;71.40
43772;HTU21D;59066;54.782;32.024;2022-07-23T04:55:06;20.70;71.16
43772;HTU21D;59066;54.782;32.024;2022-07-23T04:57:34;20.75;71.09
43772;HTU21D;59066;54.782;32.024;2022-07-23T05:00:03;20.80;71.05
43772;HTU21D;59066;54.782;32.024;2022-07-23T05:02:31;20.86;71.12
43772;HTU21D;59066;54.782;32.024;2022-07-23T05:04:59;20.90;71.15
43772;HTU21D;59066;54.782;32.024;2022-07-23T05:07:27;20.93;71.17
43772;HTU21D;59066;54.782;32.024;2022-07-23T05:09:55;20.99;71.16
43772;HTU21D;59066;54.782;32.024;2022-07-23T05:12:22;21.03;70.94
43772;HTU21D;59066;54.782;32.024;2022-07-23T05:14:50;21.06;70.66
43772;HTU21D;59066;54.782;32.024;2022-07-23T05:17:19;21.10;70.77
43772;HTU21D;59066;54.782;32.024;2022-07-23T05:19:47;21.16;69.61
43772;HTU21D;59066;54.782;32.024;2022-07-23T05:22:15;21.22;68.87
43772;HTU21D;59066;54.782;32.024;2022-07-23T05:24:42;21.31;68.18
43772;HTU21D;59066;54.782;32.024;2022-07-23T05:29:57;21.49;67.07
43772;HTU21D;59066;54.782;32.024;2022-07-23T05:32:25;21.58;66.94
43772;HTU21D;59066;54.782;32.024;2022-07-23T05:35:07;21.68;66.30
43772;HTU21D;59066;54.782;32.024;2022-07-23T05:37:38;21.77;64.89
43772;HTU21D;59066;54.782;32.024;2022-07-23T05:40:09;21.83;63.92
43772;HTU21D;59066;54.782;32.024;2022-07-23T05:42:38;21.92;64.08
43772;HTU21D;59066;54.782;32.024;2022-07-23T05:45:08;22.01;63.58
43772;HTU21D;59066;54.782;32.024;2022-07-23T05:47:47;22.09;63.07
43772;HTU21D;59066;54.782;32.024;2022-07-23T05:50:23;22.16;62.84
43772;HTU21D;59066;54.782;32.024;2022-07-23T05:52:57;22.23;62.41
43772;HTU21D;59066;54.782;32.024;2022-07-23T05:55:27;22.32;61.65
43772;HTU21D;59066;54.782;32.024;2022-07-23T05:57:57;22.40;61.93
43772;HTU21D;59066;54.782;32.024;2022-07-23T06:00:27;22.43;61.92
43772;HTU21D;59066;54.782;32.024;2022-07-23T06:02:56;22.48;61.44
43772;HTU21D;59066;54.782;32.024;2022-07-23T06:05:26;22.53;61.41
43772;HTU21D;59066;54.782;32.024;2022-07-23T06:08:01;22.58;60.48
43772;HTU21D;59066;54.782;32.024;2022-07-23T06:10:30;22.63;60.51
43772;HTU21D;59066;54.782;32.024;2022-07-23T06:12:58;22.65;59.99
43772;HTU21D;59066;54.782;32.024;2022-07-23T06:15:28;22.71;58.62
43772;HTU21D;59066;54.782;32.024;2022-07-23T06:17:57;22.76;58.35
43772;HTU21D;59066;54.782;32.024;2022-07-23T06:20:24;22.84;58.52
43772;HTU21D;59066;54.782;32.024;2022-07-23T06:22:52;22.87;58.07
43772;HTU21D;59066;54.782;32.024;2022-07-23T06:25:19;22.96;58.54
43772;HTU21D;59066;54.782;32.024;2022-07-23T06:27:48;23.02;57.22
43772;HTU21D;59066;54.782;32.024;2022-07-23T06:30:16;23.10;56.55
43772;HTU21D;59066;54.782;32.024;2022-07-23T06:32:48;23.20;56.48
43772;HTU21D;59066;54.782;32.024;2022-07-23T06:38:05;23.31;55.78
43772;HTU21D;59066;54.782;32.024;2022-07-23T06:40:34;23.36;55.51
43772;HTU21D;59066;54.782;32.024;2022-07-23T06:43:02;23.40;54.38
43772;HTU21D;59066;54.782;32.024;2022-07-23T06:45:36;23.43;53.97
43772;HTU21D;59066;54.782;32.024;2022-07-23T06:48:04;23.55;54.52
43772;HTU21D;59066;54.782;32.024;2022-07-23T06:50:33;23.50;54.30
43772;HTU21D;59066;54.782;32.024;2022-07-23T06:53:01;23.56;54.17
43772;HTU21D;59066;54.782;32.024;2022-07-23T06:55:29;23.60;53.62
43772;HTU21D;59066;54.782;32.024;2022-07-23T06:57:56;23.66;53.56
43772;HTU21D;59066;54.782;32.024;2022-07-23T07:00:23;23.71;53.65
43772;HTU21D;59066;54.782;32.024;2022-07-23T07:02:54;23.70;54.23
43772;HTU21D;59066;54.782;32.024;2022-07-23T07:05:22;23.73;54.10
43772;HTU21D;59066;54.782;32.024;2022-07-23T07:07:50;23.70;53.55
43772;HTU21D;59066;54.782;32.024;2022-07-23T07:10:17;23.72;53.43
43772;HTU21D;59066;54.782;32.024;2022-07-23T07:12:45;23.84;52.67
43772;HTU21D;59066;54.782;32.024;2022-07-23T07:15:12;23.88;51.88
43772;HTU21D;59066;54.782;32.024;2022-07-23T07:17:40;23.98;50.85
43772;HTU21D;59066;54.782;32.024;2022-07-23T07:20:09;24.03;50.61
43772;HTU21D;59066;54.782;32.024;2022-07-23T07:22:37;24.08;49.78
43772;HTU21D;59066;54.782;32.024;2022-07-23T07:25:05;24.15;49.79
43772;HTU21D;59066;54.782;32.024;2022-07-23T07:27:33;24.13;49.63
43772;HTU21D;59066;54.782;32.024;2022-07-23T07:30:02;24.19;49.15
43772;HTU21D;59066;54.782;32.024;2022-07-23T07:32:29;24.34;48.49
43772;HTU21D;59066;54.782;32.024;2022-07-23T07:35:19;24.41;48.04
43772;HTU21D;59066;54.782;32.024;2022-07-23T07:37:56;24.51;47.49
43772;HTU21D;59066;54.782;32.024;2022-07-23T07:40:24;24.49;46.60
43772;HTU21D;59066;54.782;32.024;2022-07-23T07:42:57;24.57;47.13
43772;HTU21D;59066;54.782;32.024;2022-07-23T07:45:24;24.64;47.01
43772;HTU21D;59066;54.782;32.024;2022-07-23T07:47:53;24.62;46.47
43772;HTU21D;59066;54.782;32.024;2022-07-23T07:50:21;24.75;46.64
43772;HTU21D;59066;54.782;32.024;2022-07-23T07:52:49;24.83;46.44
43772;HTU21D;59066;54.782;32.024;2022-07-23T07:55:16;24.89;46.44
43772;HTU21D;59066;54.782;32.024;2022-07-23T07:57:44;24.99;46.57
43772;HTU21D;59066;54.782;32.024;2022-07-23T08:00:15;25.07;46.35
43772;HTU21D;59066;54.782;32.024;2022-07-23T08:02:44;25.14;46.49
43772;HTU21D;59066;54.782;32.024;2022-07-23T08:05:12;25.17;44.81
43772;HTU21D;59066;54.782;32.024;2022-07-23T08:07:40;25.28;45.32
43772;HTU21D;59066;54.782;32.024;2022-07-23T08:10:09;25.42;44.81
43772;HTU21D;59066;54.782;32.024;2022-07-23T08:12:50;25.58;44.32
43772;HTU21D;59066;54.782;32.024;2022-07-23T08:15:20;25.61;44.42
43772;HTU21D;59066;54.782;32.024;2022-07-23T08:17:48;25.66;44.64
43772;HTU21D;59066;54.782;32.024;2022-07-23T08:20:21;25.72;44.62
43772;HTU21D;59066;54.782;32.024;2022-07-23T08:22:58;25.68;44.93
43772;HTU21D;59066;54.782;32.024;2022-07-23T08:25:28;25.62;44.19
43772;HTU21D;59066;54.782;32.024;2022-07-23T08:27:58;25.67;43.58
43772;HTU21D;59066;54.782;32.024;2022-07-23T08:30:27;25.75;42.75
43772;HTU21D;59066;54.782;32.024;2022-07-23T08:33:05;25.84;41.99
43772;HTU21D;59066;54.782;32.024;2022-07-23T08:35:47;25.89;41.49
43772;HTU21D;59066;54.782;32.024;2022-07-23T08:38:16;25.90;41.87
43772;HTU21D;59066;54.782;32.024;2022-07-23T08:40:47;25.96;42.22
43772;HTU21D;59066;54.782;32.024;2022-07-23T08:43:19;26.10;42.43
43772;HTU21D;59066;54.782;32.024;2022-07-23T08:45:49;26.07;42.12
43772;HTU21D;59066;54.782;32.024;2022-07-23T08:48:21;25.93;42.19
43772;HTU21D;59066;54.782;32.024;2022-07-23T08:50:53;25.87;42.74
43772;HTU21D;59066;54.782;32.024;2022-07-23T08:53:23;25.88;42.77
43772;HTU21D;59066;54.782;32.024;2022-07-23T08:55:52;25.93;42.58
43772;HTU21D;59066;54.782;32.024;2022-07-23T08:58:20;25.98;43.03
43772;HTU21D;59066;54.782;32.024;2022-07-23T09:00:53;25.97;43.33
43772;HTU21D;59066;54.782;32.024;2022-07-23T09:03:23;25.95;43.64
43772;HTU21D;59066;54.782;32.024;2022-07-23T09:05:51;25.86;43.22
43772;HTU21D;59066;54.782;32.024;2022-07-23T09:08:24;25.84;42.81
43772;HTU21D;59066;54.782;32.024;2022-07-23T09:11:01;26.01;42.72
43772;HTU21D;59066;54.782;32.024;2022-07-23T09:13:38;26.07;42.71
43772;HTU21D;59066;54.782;32.024;2022-07-23T09:16:10;26.09;42.62
43772;HTU21D;59066;54.782;32.024;2022-07-23T09:18:41;26.10;42.66
43772;HTU21D;59066;54.782;32.024;2022-07-23T09:24:03;26.13;42.61
43772;HTU21D;59066;54.782;32.024;2022-07-23T09:26:48;26.19;43.35
43772;HTU21D;59066;54.782;32.024;2022-07-23T09:29:21;26.32;42.24
43772;HTU21D;59066;54.782;32.024;2022-07-23T09:31:52;26.43;41.31
43772;HTU21D;59066;54.782;32.024;2022-07-23T09:36:53;26.50;42.29
43772;HTU21D;59066;54.782;32.024;2022-07-23T09:39:31;26.52;42.23
43772;HTU21D;59066;54.782;32.024;2022-07-23T09:44:48;26.53;42.05
43772;HTU21D;59066;54.782;32.024;2022-07-23T09:47:16;26.61;41.97
43772;HTU21D;59066;54.782;32.024;2022-07-23T09:50:09;26.70;41.98
43772;HTU21D;59066;54.782;32.024;2022-07-23T09:52:44;26.83;41.56
43772;HTU21D;59066;54.782;32.024;2022-07-23T09:55:13;26.79;40.63
43772;HTU21D;59066;54.782;32.024;2022-07-23T09:57:41;26.72;39.96
43772;HTU21D;59066;54.782;32.024;2022-07-23T10:00:11;26.62;38.94
43772;HTU21D;59066;54.782;32.024;2022-07-23T10:02:39;26.73;39.25
43772;HTU21D;59066;54.782;32.024;2022-07-23T10:05:28;27.04;39.10
43772;HTU21D;59066;54.782;32.024;2022-07-23T10:07:57;27.30;38.95
43772;HTU21D;59066;54.782;32.024;2022-07-23T10:10:45;27.21;38.33
43772;HTU21D;59066;54.782;32.024;2022-07-23T10:13:34;27.39;38.92
43772;HTU21D;59066;54.782;32.024;2022-07-23T10:16:40;27.99;38.06
43772;HTU21D;59066;54.782;32.024;2022-07-23T10:19:08;28.76;38.24
43772;HTU21D;59066;54.782;32.024;2022-07-23T10:21:44;29.06;35.50
43772;HTU21D;59066;54.782;32.024;2022-07-23T10:29:52;28.87;34.69
43772;HTU21D;59066;54.782;32.024;2022-07-23T10:37:54;30.96;30.43
43772;HTU21D;59066;54.782;32.024;2022-07-23T10:40:23;31.15;31.70
43772;HTU21D;59066;54.782;32.024;2022-07-23T10:42:51;31.44;31.49
43772;HTU21D;59066;54.782;32.024;2022-07-23T10:45:33;31.94;28.58
43772;HTU21D;59066;54.782;32.024;2022-07-23T10:48:25;32.17;28.10
43772;HTU21D;59066;54.782;32.024;2022-07-23T10:51:14;32.38;28.13
43772;HTU21D;59066;54.782;32.024;2022-07-23T10:56:51;32.45;27.28
43772;HTU21D;59066;54.782;32.024;2022-07-23T10:59:31;32.11;28.14
43772;HTU21D;59066;54.782;32.024;2022-07-23T11:02:20;32.38;27.33
43772;HTU21D;59066;54.782;32.024;2022-07-23T11:04:51;32.08;27.61
43772;HTU21D;59066;54.782;32.024;2022-07-23T11:07:19;31.60;28.38
43772;HTU21D;59066;54.782;32.024;2022-07-23T11:09:48;31.02;28.93
43772;HTU21D;59066;54.782;32.024;2022-07-23T11:28:18;33.03;25.67
43772;HTU21D;59066;54.782;32.024;2022-07-23T11:30:51;33.04;26.16
43772;HTU21D;59066;54.782;32.024;2022-07-23T11:33:20;33.42;25.87
43772;HTU21D;59066;54.782;32.024;2022-07-23T11:35:50;33.67;25.40
43772;HTU21D;59066;54.782;32.024;2022-07-23T11:38:26;34.07;25.04
43772;HTU21D;59066;54.782;32.024;2022-07-23T11:40:55;34.39;24.65
43772;HTU21D;59066;54.782;32.024;2022-07-23T11:43:26;34.38;24.60
43772;HTU21D;59066;54.782;32.024;2022-07-23T11:45:58;34.62;24.20
43772;HTU21D;59066;54.782;32.024;2022-07-23T11:48:28;35.45;23.46
43772;HTU21D;59066;54.782;32.024;2022-07-23T11:50:58;36.19;22.43
43772;HTU21D;59066;54.782;32.024;2022-07-23T11:53:31;35.97;22.41
43772;HTU21D;59066;54.782;32.024;2022-07-23T11:56:09;35.82;22.21
43772;HTU21D;59066;54.782;32.024;2022-07-23T11:58:39;35.92;22.14
43772;HTU21D;59066;54.782;32.024;2022-07-23T12:01:08;35.83;22.47
43772;HTU21D;59066;54.782;32.024;2022-07-23T12:03:51;35.83;21.79
43772;HTU21D;59066;54.782;32.024;2022-07-23T12:06:19;35.60;22.69
43772;HTU21D;59066;54.782;32.024;2022-07-23T12:08:46;35.43;23.17
43772;HTU21D;59066;54.782;32.024;2022-07-23T12:11:14;35.98;22.84
43772;HTU21D;59066;54.782;32.024;2022-07-23T12:13:42;36.73;22.02
43772;HTU21D;59066;54.782;32.024;2022-07-23T12:16:11;36.88;21.68
43772;HTU21D;59066;54.782;32.024;2022-07-23T12:18:39;36.72;21.83
43772;HTU21D;59066;54.782;32.024;2022-07-23T12:21:06;37.20;21.28
43772;HTU21D;59066;54.782;32.024;2022-07-23T12:23:34;37.46;20.76
43772;HTU21D;59066;54.782;32.024;2022-07-23T12:26:03;38.00;20.28
43772;HTU21D;59066;54.782;32.024;2022-07-23T12:28:34;37.79;20.21
43772;HTU21D;59066;54.782;32.024;2022-07-23T12:31:05;37.41;20.63
43772;HTU21D;59066;54.782;32.024;2022-07-23T12:33:38;37.61;19.99
43772;HTU21D;59066;54.782;32.024;2022-07-23T12:36:08;37.52;20.18
43772;HTU21D;59066;54.782;32.024;2022-07-23T12:38:39;37.80;20.08
43772;HTU21D;59066;54.782;32.024;2022-07-23T12:41:07;38.65;19.61
43772;HTU21D;59066;54.782;32.024;2022-07-23T12:43:39;38.06;19.31
43772;HTU21D;59066;54.782;32.024;2022-07-23T12:48:53;39.45;16.87
43772;HTU21D;59066;54.782;32.024;2022-07-23T12:51:23;38.31;18.10
43772;HTU21D;59066;54.782;32.024;2022-07-23T12:53:54;38.20;18.33
43772;HTU21D;59066;54.782;32.024;2022-07-23T12:56:27;39.08;17.36
43772;HTU21D;59066;54.782;32.024;2022-07-23T12:59:05;38.18;17.35
43772;HTU21D;59066;54.782;32.024;2022-07-23T13:01:36;37.69;18.35
43772;HTU21D;59066;54.782;32.024;2022-07-23T13:04:06;37.70;18.43
43772;HTU21D;59066;54.782;32.024;2022-07-23T13:09:08;37.55;19.16
43772;HTU21D;59066;54.782;32.024;2022-07-23T13:11:36;37.33;19.73
43772;HTU21D;59066;54.782;32.024;2022-07-23T13:14:03;37.34;19.87
43772;HTU21D;59066;54.782;32.024;2022-07-23T13:16:33;37.48;19.56
43772;HTU21D;59066;54.782;32.024;2022-07-23T13:19:00;36.90;20.11
43772;HTU21D;59066;54.782;32.024;2022-07-23T13:21:31;36.66;19.83
43772;HTU21D;59066;54.782;32.024;2022-07-23T13:23:59;36.18;20.57
43772;HTU21D;59066;54.782;32.024;2022-07-23T13:26:27;36.37;19.69
43772;HTU21D;59066;54.782;32.024;2022-07-23T13:28:56;36.49;19.67
43772;HTU21D;59066;54.782;32.024;2022-07-23T13:31:23;36.46;20.35
43772;HTU21D;59066;54.782;32.024;2022-07-23T13:33:51;36.43;20.46
43772;HTU21D;59066;54.782;32.024;2022-07-23T13:36:19;36.31;20.15
43772;HTU21D;59066;54.782;32.024;2022-07-23T13:38:46;36.16;20.43
43772;HTU21D;59066;54.782;32.024;2022-07-23T13:41:14;35.69;20.98
43772;HTU21D;59066;54.782;32.024;2022-07-23T13:43:46;35.68;20.53
43772;HTU21D;59066;54.782;32.024;2022-07-23T13:46:14;35.67;20.92
43772;HTU21D;59066;54.782;32.024;2022-07-23T13:48:42;36.11;20.69
43772;HTU21D;59066;54.782;32.024;2022-07-23T13:51:10;35.97;20.95
43772;HTU21D;59066;54.782;32.024;2022-07-23T13:53:38;36.03;20.79
43772;HTU21D;59066;54.782;32.024;2022-07-23T13:58:52;36.60;20.57
43772;HTU21D;59066;54.782;32.024;2022-07-23T14:01:20;36.31;20.76
43772;HTU21D;59066;54.782;32.024;2022-07-23T14:03:47;35.99;21.04
43772;HTU21D;59066;54.782;32.024;2022-07-23T14:06:15;35.50;21.66
43772;HTU21D;59066;54.782;32.024;2022-07-23T14:08:43;35.28;21.90
43772;HTU21D;59066;54.782;32.024;2022-07-23T14:11:12;35.13;22.39
43772;HTU21D;59066;54.782;32.024;2022-07-23T14:13:40;34.90;22.96
43772;HTU21D;59066;54.782;32.024;2022-07-23T14:16:07;36.01;21.63
43772;HTU21D;59066;54.782;32.024;2022-07-23T14:18:35;36.64;20.92
43772;HTU21D;59066;54.782;32.024;2022-07-23T14:21:05;37.13;20.52
43772;HTU21D;59066;54.782;32.024;2022-07-23T14:23:32;37.19;20.37
43772;HTU21D;59066;54.782;32.024;2022-07-23T14:26:00;37.06;20.25
43772;HTU21D;59066;54.782;32.024;2022-07-23T14:28:27;37.18;20.04
43772;HTU21D;59066;54.782;32.024;2022-07-23T14:30:55;35.97;21.07
43772;HTU21D;59066;54.782;32.024;2022-07-23T14:33:23;35.66;21.51
43772;HTU21D;59066;54.782;32.024;2022-07-23T14:35:50;35.95;21.18
43772;HTU21D;59066;54.782;32.024;2022-07-23T14:38:18;35.41;21.85
43772;HTU21D;59066;54.782;32.024;2022-07-23T14:40:50;36.02;21.37
43772;HTU21D;59066;54.782;32.024;2022-07-23T14:43:18;36.61;21.08
43772;HTU21D;59066;54.782;32.024;2022-07-23T14:45:45;37.51;20.21
43772;HTU21D;59066;54.782;32.024;2022-07-23T14:48:13;37.34;20.05
43772;HTU21D;59066;54.782;32.024;2022-07-23T14:50:40;37.55;19.88
43772;HTU21D;59066;54.782;32.024;2022-07-23T14:53:08;37.59;20.00
43772;HTU21D;59066;54.782;32.024;2022-07-23T14:55:36;36.89;20.46
43772;HTU21D;59066;54.782;32.024;2022-07-23T14:58:04;36.47;21.08
43772;HTU21D;59066;54.782;32.024;2022-07-23T15:00:31;36.54;20.99
43772;HTU21D;59066;54.782;32.024;2022-07-23T15:03:00;36.84;20.60
43772;HTU21D;59066;54.782;32.024;2022-07-23T15:05:27;37.21;20.05
43772;HTU21D;59066;54.782;32.024;2022-07-23T15:07:56;36.56;20.63
43772;HTU21D;59066;54.782;32.024;2022-07-23T15:10:23;35.82;21.44
43772;HTU21D;59066;54.782;32.024;2022-07-23T15:12:51;35.81;21.80
43772;HTU21D;59066;54.782;32.024;2022-07-23T15:15:18;36.26;21.24
43772;HTU21D;59066;54.782;32.024;2022-07-23T15:17:47;36.15;21.53
43772;HTU21D;59066;54.782;32.024;2022-07-23T15:20:15;35.53;22.36
43772;HTU21D;59066;54.782;32.024;2022-07-23T15:22:44;35.62;22.72
43772;HTU21D;59066;54.782;32.024;2022-07-23T15:25:12;36.19;21.60
43772;HTU21D;59066;54.782;32.024;2022-07-23T15:27:39;35.92;21.76
43772;HTU21D;59066;54.782;32.024;2022-07-23T15:30:07;34.59;23.49
43772;HTU21D;59066;54.782;32.024;2022-07-23T15:32:37;34.97;23.28
43772;HTU21D;59066;54.782;32.024;2022-07-23T15:35:05;34.77;23.58
43772;HTU21D;59066;54.782;32.024;2022-07-23T15:37:35;34.57;23.93
43772;HTU21D;59066;54.782;32.024;2022-07-23T15:40:02;35.21;23.21
43772;HTU21D;59066;54.782;32.024;2022-07-23T15:42:33;35.82;22.35
43772;HTU21D;59066;54.782;32.024;2022-07-23T15:45:00;34.99;23.37
43772;HTU21D;59066;54.782;32.024;2022-07-23T15:47:28;34.63;23.77
43772;HTU21D;59066;54.782;32.024;2022-07-23T15:49:55;34.96;23.36
43772;HTU21D;59066;54.782;32.024;2022-07-23T15:52:22;35.00;23.30
43772;HTU21D;59066;54.782;32.024;2022-07-23T15:54:52;35.63;22.92
43772;HTU21D;59066;54.782;32.024;2022-07-23T15:57:22;35.23;23.34
43772;HTU21D;59066;54.782;32.024;2022-07-23T15:59:50;35.01;23.56
43772;HTU21D;59066;54.782;32.024;2022-07-23T16:02:17;34.80;23.96
43772;HTU21D;59066;54.782;32.024;2022-07-23T16:04:45;34.61;24.19
43772;HTU21D;59066;54.782;32.024;2022-07-23T16:07:13;34.55;24.14
43772;HTU21D;59066;54.782;32.024;2022-07-23T16:09:41;34.39;24.27
43772;HTU21D;59066;54.782;32.024;2022-07-23T16:12:09;34.07;24.78
43772;HTU21D;59066;54.782;32.024;2022-07-23T16:14:37;34.27;24.59